Česky Dansk Deutsch English Español Suomi Français Magyar Italiano Nederlands norsk Polski Português svenska Türkçe

 

Het Weer

Batman (Turkije)

06:20, 31 juli 2016 (GMT)

NWNNE
WE
SWSSE
Home            
Batman Diyarbakir Kamishli Mus Tur-Afb Elazig Van Urfa Erzurum Mosul Erzincan Malatya / Erhac Deir Ezzor Khoy Kars Gaziantep Orumieh Trabzon Yerevan Aleppo International Airport Sivas Maragheh / Sahand Tabriz Palmyra

Om een weerknop op uw website of weblog te plaatsen, copieer onderstaande code en plak die in uw pagina. In het eerste vakje staat HTML-code, in het tweede vakje UBB-code.


Add to Google

Details

Wind speed:2 bf, 4 kn, 2.1 m/s, 4.6 miles/h, 7.4 km/h
Wind direction:SW, 220° - NW, 310°
Visibility:Greater than 10000 m, 10 km, 32800 ft, 6.2 miles
Clouds:CAVOC
Temperature:30°C, 86°F
Gefühlte Temperatur:29°C, 84°F
Dew-point:12°C, 54°F
Atmospheric pressure:1006 hPa, 754.6 mmHg, 29.71 inHg, 0.993 atm
Relative humidity:33.1 %
METAR:LTCJ 310620Z 27004KT 220V310 CAVOK 30/12 Q1006

Snelkoppelingen

Actuele weersinformatie van de hele wereld. Voeg locaties toe met het plus (+) symbool. Deze snelkoppelingen kunnen worden toegevoegd aan Google.

Lid van de Technetium groep

website free tracking
StatCounter NetStat W3C Validator

07-10-2022 07:19:47
astro.technetium.be money.technetium.be phote.technetium.be tafeltennistafel.technetium.be www.ligfiets.net